Skip to main content

NOAA/GLERL Met Station at Michigan City, IN

Previous 3 Hours (2 minute increments)
See also Previous 5 Days (top of hour)
Jump down to Data
Switch to [English][Metric]
Zoom: Click and drag, Pan: shift-click and drag, Unzoom: double-click, Unzoom All





See also 1-day windrose plot


NOAA/GLERL Met Station at Michigan City, IN

Previous 3 Hours (2 minute increments)
See also Previous 5 Days (top of hour only)
Jump up to Graphs
Switch to [English][Metric]
                  Wind  Wind  Wind   Air   Dew   Rel     Sta   PAR
                   Spd   Gst   Dir  Temp    Pt   Hum    Pres uE/m2/
YYYY-MM-DD   CDT   m/s   m/s   deg     C     C     %      mb   sec
2018-06-19 14:36   4.7   5.3    33  20.8   0.0   0.0    0.00   587
2018-06-19 14:34   5.1   6.0    30  20.8   0.0   0.0    0.00   657
2018-06-19 14:32   5.9   6.3    28  20.8   0.0   0.0    0.00   693
2018-06-19 14:30   5.8   6.1    31  20.8   0.0   0.0    0.00   862
2018-06-19 14:28   5.3   5.7    35  20.8   0.0   0.0    0.00  1142
2018-06-19 14:26   5.1   5.4    30  20.8   0.0   0.0    0.00  1385
2018-06-19 14:24   5.8   6.5    23  20.8   0.0   0.0    0.00  1553
2018-06-19 14:22   6.0   6.6    22  20.9   0.0   0.0    0.00  1440
2018-06-19 14:20   5.7   6.3    24  20.9   0.0   0.0    0.00  1405
2018-06-19 14:18   5.7   6.4    23  20.9   0.0   0.0    0.00  1522
2018-06-19 14:16   5.5   5.8    24  20.9   0.0   0.0    0.00  1361
2018-06-19 14:14   6.3   7.1    24  20.9   0.0   0.0    0.00  1388
2018-06-19 14:12   6.3   7.0    27  20.9   0.0   0.0    0.00  1417
2018-06-19 14:10   6.1   7.1    30  20.9   0.0   0.0    0.00  1710
2018-06-19 14:08   6.0   6.4    33  20.9   0.0   0.0    0.00  1706
2018-06-19 14:06   6.2   7.1    32  20.8   0.0   0.0    0.00  1706
2018-06-19 14:04   6.5   7.0    33  20.8   0.0   0.0    0.00  1807
2018-06-19 14:02   6.2   6.8    32  20.8   0.0   0.0    0.00  1717
2018-06-19 14:00   6.8   7.3    32  20.7   0.0   0.0    0.00  1717
2018-06-19 13:58   6.6   7.0    33  20.7   0.0   0.0    0.00  1818
2018-06-19 13:56   6.5   6.8    31  20.7   0.0   0.0    0.00  1888
2018-06-19 13:54   5.9   6.5    30  20.7   0.0   0.0    0.00  1888
2018-06-19 13:52   5.9   6.8    31  20.7   0.0   0.0    0.00  1848
2018-06-19 13:50   5.8   6.4    35  20.5   0.0   0.0    0.00  1806
2018-06-19 13:48   5.8   6.5    39  20.4   0.0   0.0    0.00  1806
2018-06-19 13:46   5.3   5.8    41  20.4   0.0   0.0    0.00  1789
2018-06-19 13:44   5.4   5.8    43  20.3   0.0   0.0    0.00  1508
2018-06-19 13:42   5.1   5.5    42  20.3   0.0   0.0    0.00  1908
2018-06-19 13:40   4.7   5.0    43  20.3   0.0   0.0    0.00  1961
2018-06-19 13:38   4.5   4.7    45  20.1   0.0   0.0    0.00  1961
2018-06-19 13:36   4.5   4.8    45  20.0   0.0   0.0    0.00  1816
2018-06-19 13:34   4.4   4.7    47  20.0   0.0   0.0    0.00  1590
2018-06-19 13:32   4.6   4.8    44  19.9   0.0   0.0    0.00  1558
2018-06-19 13:30   4.5   4.9    47  19.9   0.0   0.0    0.00  1582
2018-06-19 13:28   4.5   4.8    44  19.8   0.0   0.0    0.00  1496
2018-06-19 13:26   4.5   4.8    43  19.7   0.0   0.0    0.00  1416
2018-06-19 13:24   4.3   4.8    39  19.7   0.0   0.0    0.00  1266
2018-06-19 13:22   4.4   4.7    42  19.7   0.0   0.0    0.00  1471
2018-06-19 13:20   4.5   4.6    43  19.7   0.0   0.0    0.00  1570
2018-06-19 13:18   4.4   4.8    47  19.7   0.0   0.0    0.00  1255
2018-06-19 13:16   4.2   4.7    42  19.7   0.0   0.0    0.00  1329
2018-06-19 13:14   4.2   4.8    36  19.6   0.0   0.0    0.00  1349
2018-06-19 13:12   4.4   4.7    36  19.6   0.0   0.0    0.00  1562
2018-06-19 13:10   4.3   4.8    36  19.6   0.0   0.0    0.00  1546
2018-06-19 13:08   4.8   5.0    29  19.5   0.0   0.0    0.00  1295
2018-06-19 13:06   4.9   5.3    27  19.5   0.0   0.0    0.00  1283
2018-06-19 13:04   5.1   5.6    30  19.5   0.0   0.0    0.00  1676
2018-06-19 13:02   4.7   5.0    30  19.5   0.0   0.0    0.00  1445
2018-06-19 13:00   4.7   5.3    30  19.5   0.0   0.0    0.00  1512
2018-06-19 12:58   4.8   5.1    35  19.4   0.0   0.0    0.00  1772
2018-06-19 12:56   4.3   4.5    35  19.4   0.0   0.0    0.00  2037
2018-06-19 12:54   4.2   4.7    35  19.4   0.0   0.0    0.00  1958
2018-06-19 12:52   4.2   4.9    37  19.4   0.0   0.0    0.00  1869
2018-06-19 12:50   4.2   4.7    37  19.3   0.0   0.0    0.00  1880
2018-06-19 12:48   4.0   4.4    36  19.3   0.0   0.0    0.00  1428
2018-06-19 12:46   4.0   4.5    35  19.3   0.0   0.0    0.00  1560
2018-06-19 12:44   3.6   4.1    34  19.3   0.0   0.0    0.00  1883
2018-06-19 12:42   3.7   4.0    40  19.1   0.0   0.0    0.00  1611
2018-06-19 12:40   3.7   4.0    41  19.1   0.0   0.0    0.00  1750
2018-06-19 12:38   3.8   4.2    40  19.0   0.0   0.0    0.00  1796
2018-06-19 12:36   3.9   4.3    34  19.0   0.0   0.0    0.00  1796
2018-06-19 12:34   4.1   5.0    33  18.9   0.0   0.0    0.00  1476
2018-06-19 12:32   4.0   4.4    32  18.9   0.0   0.0    0.00  1651
2018-06-19 12:30   3.8   4.2    35  18.8   0.0   0.0    0.00  1567
2018-06-19 12:28   3.6   4.0    34  18.8   0.0   0.0    0.00  1507
2018-06-19 12:26   3.8   4.1    36  18.8   0.0   0.0    0.00  1515
2018-06-19 12:24   3.9   4.2    34  18.8   0.0   0.0    0.00  1449
2018-06-19 12:22   3.8   4.1    36  18.8   0.0   0.0    0.00  1531
2018-06-19 12:20   4.2   4.5    35  18.7   0.0   0.0    0.00  1580
2018-06-19 12:18   3.9   4.6    31  18.7   0.0   0.0    0.00  1447
2018-06-19 12:16   3.9   4.3    26  18.6   0.0   0.0    0.00  1440
2018-06-19 12:14   4.8   5.3    15  18.5   0.0   0.0    0.00  1628
2018-06-19 12:12   5.4   5.9     6  18.5   0.0   0.0    0.00  1627
2018-06-19 12:10   5.9   6.1     2  18.5   0.0   0.0    0.00  1267
2018-06-19 12:08   5.6   6.1     3  18.5   0.0   0.0    0.00  1440
2018-06-19 12:06   5.0   5.7    12  18.4   0.0   0.0    0.00  1565
2018-06-19 12:04   5.0   5.3    15  18.2   0.0   0.0    0.00  1329
2018-06-19 12:02   5.1   5.8     8  18.3   0.0   0.0    0.00   954
2018-06-19 12:00   6.5   7.2   356  18.5   0.0   0.0    0.00   982
2018-06-19 11:58   7.4   8.7   346  18.8   0.0   0.0    0.00   877
2018-06-19 11:56   8.1   9.1   338  18.9   0.0   0.0    0.00   744
2018-06-19 11:54   7.7   8.4   339  19.0   0.0   0.0    0.00  1231
2018-06-19 11:52   7.4   7.9   344  18.9   0.0   0.0    0.00  1300
2018-06-19 11:50   7.0   7.5   343  18.8   0.0   0.0    0.00  1864
2018-06-19 11:48   7.9   8.4   338  18.7   0.0   0.0    0.00  1627
2018-06-19 11:46   7.8   8.4   336  18.6   0.0   0.0    0.00  1433
2018-06-19 11:44   7.7   8.6   332  18.4   0.0   0.0    0.00  1774
2018-06-19 11:42   9.3  10.4   329  18.3   0.0   0.0    0.00   910
2018-06-19 11:40  10.3  11.1   322  18.5   0.0   0.0    0.00   672
2018-06-19 11:38   7.8   9.0   325  18.6   0.0   0.0    0.00   573
2018-06-19 11:36   8.1   9.0   320  18.4   0.0   0.0    0.00   551